createdAt,value
2023-03-26T00:00:16.851Z,99675.05
2023-03-26T00:02:47.228Z,99680.71
2023-03-26T00:05:17.622Z,99682.38
2023-03-26T00:07:48.647Z,99685.43
2023-03-26T00:10:19.074Z,99686.99
2023-03-26T00:12:49.722Z,99691.73
2023-03-26T00:15:20.525Z,99691.69
2023-03-26T00:17:51.830Z,99695.00
2023-03-26T00:20:22.645Z,99695.75
2023-03-26T00:22:53.548Z,99699.48
2023-03-26T00:25:24.688Z,99700.23
2023-03-26T00:27:55.671Z,99702.98
2023-03-26T00:30:26.613Z,99700.64
2023-03-26T00:32:57.318Z,99701.10
2023-03-26T00:35:29.224Z,99703.27
2023-03-26T00:37:59.801Z,99701.69
2023-03-26T00:40:32.084Z,99703.47
2023-03-26T00:43:02.498Z,99706.70
2023-03-26T00:45:32.798Z,99711.27
2023-03-26T00:48:04.250Z,99708.05
2023-03-26T00:50:34.905Z,99710.15
2023-03-26T00:53:05.327Z,99711.23
2023-03-26T00:55:35.642Z,99709.30
2023-03-26T00:58:06.076Z,99710.46
2023-03-26T01:00:39.170Z,99709.11
2023-03-26T01:05:52.964Z,99704.39
2023-03-26T01:08:29.140Z,99711.72
2023-03-26T01:11:05.266Z,99708.00
2023-03-26T01:13:39.330Z,99712.48
2023-03-26T01:16:20.358Z,99719.27
2023-03-26T01:18:52.763Z,99720.50
2023-03-26T01:21:28.527Z,99721.52
2023-03-26T01:24:01.811Z,99722.31
2023-03-26T01:26:43.852Z,99725.66
2023-03-26T01:29:20.929Z,99736.06
2023-03-26T01:32:00.429Z,99729.95
2023-03-26T01:34:37.799Z,99726.77
2023-03-26T01:37:17.639Z,99722.60
2023-03-26T01:39:56.856Z,99724.23
2023-03-26T01:42:35.364Z,99726.54
2023-03-26T01:45:11.521Z,99729.52
2023-03-26T01:47:43.379Z,99729.08
2023-03-26T01:50:14.183Z,99731.48
2023-03-26T01:52:44.853Z,99732.75
2023-03-26T01:55:15.494Z,99731.98
2023-03-26T01:57:56.652Z,99732.20
2023-03-26T02:00:32.632Z,99734.63
2023-03-26T02:03:18.089Z,99731.34
2023-03-26T02:05:57.852Z,99732.73
2023-03-26T02:08:36.287Z,99731.32
2023-03-26T02:11:13.153Z,99729.48
2023-03-26T02:13:46.657Z,99729.58
2023-03-26T02:16:20.678Z,99732.75
2023-03-26T02:18:55.735Z,99735.95
2023-03-26T02:21:27.897Z,99734.52
2023-03-26T02:24:03.324Z,99729.46
2023-03-26T02:26:37.559Z,99728.79
2023-03-26T02:29:08.098Z,99725.79
2023-03-26T02:31:38.758Z,99724.83
2023-03-26T02:34:09.125Z,99725.30
2023-03-26T02:36:39.575Z,99724.95
2023-03-26T02:39:10.766Z,99721.45
2023-03-26T02:41:41.477Z,99721.77
2023-03-26T02:44:12.120Z,99715.94
2023-03-26T02:46:42.436Z,99721.09
2023-03-26T02:49:13.024Z,99722.48
2023-03-26T02:51:43.601Z,99730.30
2023-03-26T02:54:16.219Z,99731.93
2023-03-26T02:56:47.000Z,99732.18
2023-03-26T02:59:17.354Z,99730.52
2023-03-26T03:01:47.646Z,99728.63
2023-03-26T03:04:18.405Z,99724.91
2023-03-26T03:06:52.879Z,99727.88
2023-03-26T03:09:23.303Z,99724.95
2023-03-26T03:11:53.886Z,99723.20
2023-03-26T03:14:24.170Z,99726.37
2023-03-26T03:16:54.847Z,99725.45
2023-03-26T03:19:25.198Z,99725.95
2023-03-26T03:21:55.508Z,99729.23
2023-03-26T03:24:27.093Z,99727.59
2023-03-26T03:26:58.010Z,99727.71
2023-03-26T03:29:29.243Z,99726.54
2023-03-26T03:32:00.138Z,99726.50
2023-03-26T03:34:30.523Z,99727.55
2023-03-26T03:37:00.901Z,99724.16
2023-03-26T03:39:31.617Z,99728.39
2023-03-26T03:42:01.883Z,99733.03
2023-03-26T03:44:32.262Z,99734.95
2023-03-26T03:47:02.564Z,99730.14
2023-03-26T03:49:33.309Z,99731.14
2023-03-26T03:52:03.621Z,99727.46
2023-03-26T03:54:33.958Z,99726.42
2023-03-26T03:57:04.404Z,99717.50
2023-03-26T03:59:34.817Z,99721.39
2023-03-26T04:02:05.304Z,99723.73
2023-03-26T04:04:37.604Z,99719.09
2023-03-26T04:07:08.098Z,99718.46
2023-03-26T04:09:38.408Z,99717.96
2023-03-26T04:12:09.335Z,99718.59
2023-03-26T04:14:39.601Z,99717.52
2023-03-26T04:17:10.153Z,99715.96
2023-03-26T04:19:40.444Z,99715.04
2023-03-26T04:22:11.947Z,99714.77
2023-03-26T04:24:42.295Z,99709.80
2023-03-26T04:27:17.031Z,99710.64
2023-03-26T04:29:50.625Z,99707.59
2023-03-26T04:32:26.517Z,99706.50
2023-03-26T04:35:00.138Z,99703.83
2023-03-26T04:37:39.442Z,99704.70
2023-03-26T04:40:14.643Z,99707.30
2023-03-26T04:42:46.160Z,99712.11
2023-03-26T04:45:22.456Z,99709.31
2023-03-26T04:47:53.215Z,99709.56
2023-03-26T04:50:23.609Z,99709.43
2023-03-26T04:52:57.160Z,99710.40
2023-03-26T04:55:33.112Z,99709.69
2023-03-26T04:58:05.394Z,99708.80
2023-03-26T05:00:36.258Z,99707.34
2023-03-26T05:03:09.742Z,99708.77
2023-03-26T05:05:41.036Z,99708.55
2023-03-26T05:08:11.534Z,99703.20
2023-03-26T05:10:41.822Z,99704.92
2023-03-26T05:13:12.375Z,99704.63
2023-03-26T05:15:42.689Z,99703.59
2023-03-26T05:18:12.976Z,99703.04
2023-03-26T05:20:43.777Z,99700.20
2023-03-26T05:23:14.160Z,99698.16
2023-03-26T05:25:44.500Z,99697.23
2023-03-26T05:28:15.430Z,99697.43
2023-03-26T05:30:46.012Z,99700.15
2023-03-26T05:33:16.365Z,99700.08
2023-03-26T05:35:49.362Z,99700.02
2023-03-26T05:38:19.665Z,99698.48
2023-03-26T05:40:49.941Z,99697.73
2023-03-26T05:43:20.249Z,99696.52
2023-03-26T05:45:52.015Z,99694.55
2023-03-26T05:48:22.725Z,99692.53
2023-03-26T05:50:54.574Z,99694.97
2023-03-26T05:53:27.398Z,99701.98
2023-03-26T05:55:58.708Z,99699.58
2023-03-26T05:58:30.413Z,99694.96
2023-03-26T06:01:05.368Z,99692.78
2023-03-26T06:03:36.880Z,99691.02
2023-03-26T06:06:09.829Z,99689.98
2023-03-26T06:08:41.190Z,99690.48
2023-03-26T06:11:13.657Z,99691.32
2023-03-26T06:13:45.334Z,99690.52
2023-03-26T06:16:21.091Z,99687.80
2023-03-26T06:18:58.381Z,99685.65
2023-03-26T06:21:29.713Z,99679.61
2023-03-26T06:24:00.374Z,99676.89
2023-03-26T06:26:30.914Z,99676.00
2023-03-26T06:29:01.242Z,99674.93
2023-03-26T06:31:31.593Z,99674.02
2023-03-26T06:34:02.227Z,99677.22
2023-03-26T06:36:32.517Z,99672.10
2023-03-26T06:39:07.796Z,99668.23
2023-03-26T06:41:38.631Z,99664.74
2023-03-26T06:44:08.900Z,99662.98
2023-03-26T06:46:39.475Z,99663.20
2023-03-26T06:49:09.855Z,99664.15
2023-03-26T06:51:41.152Z,99665.48
2023-03-26T06:54:11.597Z,99663.26
2023-03-26T06:56:41.941Z,99662.34
2023-03-26T06:59:12.264Z,99660.07
2023-03-26T07:01:42.514Z,99662.17
2023-03-26T07:04:13.171Z,99666.73
2023-03-26T07:06:43.521Z,99666.59
2023-03-26T07:09:13.959Z,99664.67
2023-03-26T07:11:44.305Z,99659.91
2023-03-26T07:14:15.016Z,99664.32
2023-03-26T07:16:45.893Z,99663.83
2023-03-26T07:19:16.182Z,99659.03
2023-03-26T07:21:47.706Z,99656.67
2023-03-26T07:24:20.262Z,99655.65
2023-03-26T07:26:57.251Z,99648.09
2023-03-26T07:29:35.795Z,99646.20
2023-03-26T07:32:18.505Z,99640.67
2023-03-26T07:34:57.567Z,99638.88
2023-03-26T07:37:39.250Z,99638.30
2023-03-26T07:40:25.465Z,99638.94
2023-03-26T07:43:10.508Z,99635.80
2023-03-26T07:45:42.722Z,99634.52
2023-03-26T07:48:18.962Z,99634.02
2023-03-26T07:50:53.072Z,99634.43
2023-03-26T07:53:24.888Z,99633.98
2023-03-26T07:56:04.163Z,99636.55
2023-03-26T07:58:56.795Z,99635.70
2023-03-26T08:01:41.243Z,99632.72
2023-03-26T08:04:38.247Z,99632.31
2023-03-26T08:07:29.599Z,99626.56
2023-03-26T08:10:09.328Z,99626.77
2023-03-26T08:12:48.123Z,99623.45
2023-03-26T08:15:29.119Z,99622.65
2023-03-26T08:18:07.822Z,99624.52
2023-03-26T08:20:43.633Z,99623.52
2023-03-26T08:23:25.207Z,99616.33
2023-03-26T08:26:04.771Z,99617.34
2023-03-26T08:28:48.600Z,99621.11
2023-03-26T08:31:25.016Z,99618.76
2023-03-26T08:33:55.533Z,99620.99
2023-03-26T08:36:25.793Z,99620.15
2023-03-26T08:38:57.593Z,99619.60
2023-03-26T08:42:03.034Z,99623.44
2023-03-26T08:45:27.933Z,99618.78
2023-03-26T08:48:19.951Z,99617.26
2023-03-26T08:51:22.981Z,99621.21
2023-03-26T08:54:17.988Z,99626.02
2023-03-26T08:56:58.769Z,99627.46
2023-03-26T08:59:56.942Z,99626.05
2023-03-26T09:02:55.415Z,99627.58
2023-03-26T09:06:01.274Z,99623.04
2023-03-26T09:09:19.019Z,99627.64
2023-03-26T09:12:33.325Z,99625.52
2023-03-26T09:15:29.055Z,99625.63
2023-03-26T09:18:44.774Z,99622.81
2023-03-26T09:21:40.285Z,99625.11
2023-03-26T09:24:52.765Z,99629.03
2023-03-26T09:27:41.824Z,99626.34
2023-03-26T09:31:01.692Z,99624.29
2023-03-26T09:33:55.917Z,99621.75
2023-03-26T09:36:37.782Z,99618.50
2023-03-26T09:39:17.435Z,99616.63
2023-03-26T09:42:08.436Z,99621.13
2023-03-26T09:45:17.402Z,99618.58
2023-03-26T09:48:15.766Z,99616.38
2023-03-26T09:50:57.703Z,99617.95
2023-03-26T09:53:55.507Z,99619.08
2023-03-26T09:56:30.805Z,99622.15
2023-03-26T09:59:31.612Z,99620.25
2023-03-26T10:02:18.250Z,99615.30
2023-03-26T10:05:06.720Z,99609.98
2023-03-26T10:07:55.929Z,99610.17
2023-03-26T10:10:36.703Z,99609.15
2023-03-26T10:13:15.684Z,99600.77
2023-03-26T10:15:59.268Z,99602.05
2023-03-26T10:18:42.210Z,99603.02
2023-03-26T10:21:20.110Z,99601.29
2023-03-26T10:24:12.084Z,99600.14
2023-03-26T10:27:08.666Z,99593.77
2023-03-26T10:30:22.865Z,99589.88
2023-03-26T10:33:05.866Z,99582.64
2023-03-26T10:35:48.157Z,99576.41
2023-03-26T10:38:33.501Z,99575.27
2023-03-26T10:41:14.691Z,99581.56
2023-03-26T10:44:08.695Z,99583.13
2023-03-26T10:46:52.163Z,99579.88
2023-03-26T10:49:49.093Z,99583.98
2023-03-26T10:52:22.880Z,99582.98
2023-03-26T10:54:57.852Z,99583.86
2023-03-26T10:57:44.212Z,99585.04
2023-03-26T11:00:25.148Z,99582.27
2023-03-26T11:03:20.888Z,99578.49
2023-03-26T11:05:59.752Z,99578.70
2023-03-26T11:08:39.661Z,99578.50
2023-03-26T11:11:21.544Z,99573.36
2023-03-26T11:14:01.409Z,99572.45
2023-03-26T11:16:49.920Z,99568.39
2023-03-26T11:19:28.693Z,99568.95
2023-03-26T11:22:07.945Z,99570.20
2023-03-26T11:24:58.021Z,99569.58
2023-03-26T11:27:45.718Z,99570.92
2023-03-26T11:30:20.316Z,99564.72
2023-03-26T11:32:53.912Z,99561.70
2023-03-26T11:35:39.911Z,99557.22
2023-03-26T11:38:20.875Z,99556.61
2023-03-26T11:40:54.081Z,99554.21
2023-03-26T11:43:31.179Z,99553.56
2023-03-26T11:46:02.987Z,99550.86
2023-03-26T11:48:38.021Z,99549.72
2023-03-26T11:51:12.776Z,99547.93
2023-03-26T11:53:47.037Z,99551.89
2023-03-26T11:56:27.099Z,99554.31
2023-03-26T11:59:02.425Z,99559.77
2023-03-26T12:01:50.687Z,99553.75
2023-03-26T12:04:29.237Z,99550.58
2023-03-26T12:07:08.585Z,99550.45
2023-03-26T12:09:50.025Z,99554.25
2023-03-26T12:12:20.937Z,99550.65
2023-03-26T12:14:51.689Z,99553.38
2023-03-26T12:17:33.158Z,99547.07
2023-03-26T12:20:23.493Z,99546.65
2023-03-26T12:22:58.919Z,99544.91
2023-03-26T12:25:31.273Z,99543.15
2023-03-26T12:28:04.037Z,99541.89
2023-03-26T12:30:37.298Z,99544.09
2023-03-26T12:33:16.615Z,99534.76
2023-03-26T12:35:47.086Z,99535.11
2023-03-26T12:38:22.957Z,99531.50
2023-03-26T12:41:07.889Z,99532.70
2023-03-26T12:44:46.329Z,99533.88
2023-03-26T12:47:55.305Z,99532.77
2023-03-26T12:49:26.699Z,99537.16
2023-03-26T12:52:03.930Z,99534.46
2023-03-26T12:54:46.024Z,99533.41
2023-03-26T12:57:22.239Z,99530.98
2023-03-26T13:00:14.226Z,99531.70
2023-03-26T13:03:09.343Z,99529.40
2023-03-26T13:05:50.685Z,99528.87
2023-03-26T13:08:47.218Z,99527.89
2023-03-26T13:11:28.307Z,99528.92
2023-03-26T13:14:26.389Z,99529.70
2023-03-26T13:17:01.528Z,99524.71
2023-03-26T13:19:41.493Z,99522.53
2023-03-26T13:22:25.284Z,99519.46
2023-03-26T13:25:04.043Z,99516.90
2023-03-26T13:27:49.153Z,99513.79
2023-03-26T13:30:31.417Z,99511.91
2023-03-26T13:33:15.762Z,99509.83
2023-03-26T13:36:06.035Z,99506.80
2023-03-26T13:38:58.900Z,99500.16
2023-03-26T13:41:41.657Z,99499.19
2023-03-26T13:44:23.127Z,99499.09
2023-03-26T13:46:59.390Z,99501.00
2023-03-26T13:49:37.412Z,99499.11
2023-03-26T13:52:12.731Z,99496.48
2023-03-26T13:54:48.908Z,99494.80
2023-03-26T13:57:25.866Z,99493.36
2023-03-26T14:00:01.427Z,99494.03
2023-03-26T14:02:37.289Z,99492.40
2023-03-26T14:05:16.610Z,99492.30
2023-03-26T14:07:52.326Z,99496.05
2023-03-26T14:10:27.255Z,99489.27
2023-03-26T14:13:01.280Z,99490.64
2023-03-26T14:15:37.443Z,99494.55
2023-03-26T14:18:21.502Z,99491.59
2023-03-26T14:21:30.128Z,99489.08
2023-03-26T14:24:21.329Z,99488.23
2023-03-26T14:27:06.062Z,99493.93
2023-03-26T14:29:56.634Z,99490.77
2023-03-26T14:32:51.843Z,99493.41
2023-03-26T14:35:37.713Z,99494.92
2023-03-26T14:38:33.455Z,99493.95
2023-03-26T14:41:20.828Z,99491.14
2023-03-26T14:44:06.730Z,99489.29
2023-03-26T14:46:53.418Z,99488.73
2023-03-26T14:49:43.550Z,99490.89
2023-03-26T14:52:18.555Z,99490.20
2023-03-26T14:54:53.907Z,99493.88
2023-03-26T14:57:46.122Z,99496.83
2023-03-26T15:01:04.261Z,99496.05
2023-03-26T15:04:10.041Z,99495.87
2023-03-26T15:07:25.585Z,99495.05
2023-03-26T15:10:28.206Z,99495.64
2023-03-26T15:13:11.687Z,99495.88
2023-03-26T15:16:17.828Z,99497.80
2023-03-26T15:19:17.645Z,99497.25
2023-03-26T15:22:19.786Z,99496.73
2023-03-26T15:25:23.098Z,99503.34
2023-03-26T15:28:10.542Z,99506.33
2023-03-26T15:31:13.863Z,99506.22
2023-03-26T15:34:19.988Z,99503.88
2023-03-26T15:37:29.718Z,99502.41
2023-03-26T15:40:27.872Z,99504.03
2023-03-26T15:43:07.625Z,99507.59
2023-03-26T15:45:40.728Z,99508.88
2023-03-26T15:48:35.360Z,99509.05
2023-03-26T15:51:23.502Z,99515.39
2023-03-26T15:54:01.146Z,99514.59
2023-03-26T15:56:58.945Z,99517.00
2023-03-26T15:59:41.667Z,99522.36
2023-03-26T16:02:23.481Z,99525.09
2023-03-26T16:04:57.419Z,99524.54
2023-03-26T16:07:41.356Z,99522.64
2023-03-26T16:10:29.107Z,99521.73
2023-03-26T16:13:25.216Z,99520.51
2023-03-26T16:15:58.466Z,99520.42
2023-03-26T16:18:35.795Z,99519.20
2023-03-26T16:21:34.855Z,99523.58
2023-03-26T16:24:34.654Z,99525.64
2023-03-26T16:27:23.352Z,99528.01
2023-03-26T16:30:25.673Z,99528.60
2023-03-26T16:32:58.862Z,99527.86
2023-03-26T16:35:51.228Z,99531.11
2023-03-26T16:38:27.261Z,99535.50
2023-03-26T16:41:08.213Z,99534.70
2023-03-26T16:43:52.093Z,99536.02
2023-03-26T16:46:37.409Z,99538.48
2023-03-26T16:49:17.422Z,99536.54
2023-03-26T16:52:03.109Z,99540.48
2023-03-26T16:54:44.107Z,99538.23
2023-03-26T16:57:25.981Z,99545.75
2023-03-26T17:00:30.030Z,99544.73
2023-03-26T17:03:13.002Z,99548.38
2023-03-26T17:06:02.087Z,99554.14
2023-03-26T17:08:43.235Z,99552.95
2023-03-26T17:11:23.359Z,99561.22
2023-03-26T17:14:03.685Z,99562.83
2023-03-26T17:16:41.362Z,99566.26
2023-03-26T17:19:25.996Z,99571.95
2023-03-26T17:22:02.270Z,99576.19
2023-03-26T17:24:41.128Z,99578.66
2023-03-26T17:27:26.380Z,99585.73
2023-03-26T17:30:06.313Z,99587.88
2023-03-26T17:32:59.812Z,99591.02
2023-03-26T17:35:43.556Z,99595.10
2023-03-26T17:38:45.548Z,99602.44
2023-03-26T17:41:36.529Z,99600.58
2023-03-26T17:44:45.575Z,99602.23
2023-03-26T17:47:24.602Z,99603.55
2023-03-26T17:50:00.811Z,99612.45
2023-03-26T17:52:42.619Z,99610.17
2023-03-26T17:55:20.792Z,99613.89
2023-03-26T17:57:54.344Z,99614.52
2023-03-26T18:00:27.987Z,99617.41
2023-03-26T18:03:01.727Z,99619.74
2023-03-26T18:05:34.132Z,99626.67
2023-03-26T18:08:34.153Z,99629.27
2023-03-26T18:11:19.717Z,99632.03
2023-03-26T18:14:08.697Z,99635.16
2023-03-26T18:16:42.796Z,99639.11
2023-03-26T18:19:19.410Z,99643.48
2023-03-26T18:21:52.782Z,99648.30
2023-03-26T18:24:26.687Z,99648.19
2023-03-26T18:27:02.475Z,99655.57
2023-03-26T18:29:35.240Z,99660.16
2023-03-26T18:32:22.246Z,99666.07
2023-03-26T18:34:58.162Z,99667.50
2023-03-26T18:37:31.684Z,99667.28
2023-03-26T18:40:11.616Z,99669.21
2023-03-26T18:42:45.170Z,99672.48
2023-03-26T18:45:27.577Z,99677.23
2023-03-26T18:48:00.276Z,99682.13
2023-03-26T18:50:36.560Z,99682.17
2023-03-26T18:53:11.200Z,99689.59
2023-03-26T18:55:41.853Z,99694.29
2023-03-26T18:58:26.705Z,99691.90
2023-03-26T19:01:00.743Z,99696.18
2023-03-26T19:03:35.637Z,99699.66
2023-03-26T19:06:11.017Z,99706.24
2023-03-26T19:08:43.748Z,99705.79
2023-03-26T19:11:17.195Z,99710.61
2023-03-26T19:13:59.484Z,99710.58
2023-03-26T19:16:33.984Z,99714.47
2023-03-26T19:19:07.397Z,99717.52
2023-03-26T19:21:38.517Z,99721.92
2023-03-26T19:24:10.315Z,99725.40
2023-03-26T19:26:40.680Z,99728.46
2023-03-26T19:29:15.945Z,99730.20
2023-03-26T19:31:50.979Z,99734.73
2023-03-26T19:34:31.962Z,99737.88
2023-03-26T19:37:04.250Z,99740.67
2023-03-26T19:39:43.764Z,99743.94
2023-03-26T19:42:18.363Z,99743.41
2023-03-26T19:44:48.940Z,99746.63
2023-03-26T19:47:31.964Z,99750.78
2023-03-26T19:50:25.938Z,99756.28
2023-03-26T19:53:17.873Z,99762.23
2023-03-26T19:55:58.733Z,99764.73
2023-03-26T19:58:29.887Z,99770.71
2023-03-26T20:01:00.512Z,99767.52
2023-03-26T20:03:38.052Z,99773.13
2023-03-26T20:06:11.363Z,99779.79
2023-03-26T20:08:42.710Z,99779.81
2023-03-26T20:11:19.612Z,99776.70
2023-03-26T20:13:51.030Z,99780.64
2023-03-26T20:16:26.887Z,99781.77
2023-03-26T20:18:58.343Z,99786.89
2023-03-26T20:21:29.942Z,99790.09
2023-03-26T20:24:01.004Z,99795.00
2023-03-26T20:26:31.357Z,99800.52
2023-03-26T20:29:03.058Z,99798.86
2023-03-26T20:31:34.829Z,99797.07
2023-03-26T20:34:07.570Z,99802.98
2023-03-26T20:36:38.721Z,99802.42
2023-03-26T20:39:10.198Z,99805.65
2023-03-26T20:41:44.924Z,99806.19
2023-03-26T20:44:17.913Z,99804.96
2023-03-26T20:46:49.709Z,99808.05
2023-03-26T20:49:22.066Z,99812.88
2023-03-26T20:51:52.667Z,99812.86
2023-03-26T20:54:26.789Z,99816.45
2023-03-26T20:56:58.089Z,99818.88
2023-03-26T20:59:30.867Z,99825.96
2023-03-26T21:02:01.310Z,99834.02
2023-03-26T21:04:32.110Z,99835.64
2023-03-26T21:07:15.062Z,99837.50
2023-03-26T21:09:49.321Z,99838.10
2023-03-26T21:12:29.451Z,99838.25
2023-03-26T21:17:33.123Z,99845.85
2023-03-26T21:20:11.918Z,99846.57
2023-03-26T21:22:48.581Z,99850.55
2023-03-26T21:25:33.440Z,99857.39
2023-03-26T21:28:16.301Z,99864.11
2023-03-26T21:30:48.331Z,99866.27
2023-03-26T21:33:19.264Z,99868.66
2023-03-26T21:35:52.019Z,99874.92
2023-03-26T21:38:24.885Z,99880.86
2023-03-26T21:40:58.825Z,99883.38
2023-03-26T21:43:30.447Z,99883.29
2023-03-26T21:46:01.705Z,99892.06
2023-03-26T21:48:33.203Z,99899.66
2023-03-26T21:51:06.512Z,99898.11
2023-03-26T21:53:38.189Z,99905.23
2023-03-26T21:56:22.012Z,99907.65
2023-03-26T21:59:00.124Z,99911.86
2023-03-26T22:01:41.235Z,99914.11
2023-03-26T22:04:17.867Z,99920.16
2023-03-26T22:06:56.783Z,99922.25
2023-03-26T22:12:04.406Z,99930.39
2023-03-26T22:14:35.353Z,99934.36
2023-03-26T22:17:06.214Z,99937.76
2023-03-26T22:19:36.889Z,99936.15
2023-03-26T22:22:07.186Z,99942.48
2023-03-26T22:24:38.363Z,99946.14
2023-03-26T22:27:08.764Z,99947.80
2023-03-26T22:29:39.063Z,99955.14
2023-03-26T22:32:09.924Z,99956.33
2023-03-26T22:34:41.361Z,99960.61
2023-03-26T22:37:12.026Z,99961.52
2023-03-26T22:39:42.993Z,99966.11
2023-03-26T22:42:14.007Z,99969.26
2023-03-26T22:44:44.644Z,99976.41
2023-03-26T22:47:16.910Z,99984.44
2023-03-26T22:49:47.217Z,99988.43
2023-03-26T22:52:17.490Z,99991.50
2023-03-26T22:54:47.805Z,99998.48
2023-03-26T22:57:18.203Z,99999.71
2023-03-26T22:59:48.559Z,100000.21
2023-03-26T23:02:19.018Z,100002.56
2023-03-26T23:04:49.400Z,100007.33
2023-03-26T23:07:19.770Z,100007.28
2023-03-26T23:09:50.383Z,100010.56
2023-03-26T23:12:20.669Z,100016.59
2023-03-26T23:14:52.763Z,100026.10
2023-03-26T23:17:23.930Z,100037.36
2023-03-26T23:19:54.614Z,100039.93
2023-03-26T23:22:25.535Z,100046.08
2023-03-26T23:24:56.197Z,100050.07
2023-03-26T23:27:27.420Z,100051.70
2023-03-26T23:29:58.075Z,100055.59
2023-03-26T23:32:28.969Z,100054.05
2023-03-26T23:34:59.501Z,100058.58
2023-03-26T23:37:35.017Z,100063.74
2023-03-26T23:40:09.876Z,100070.14
2023-03-26T23:42:40.359Z,100079.05
2023-03-26T23:45:13.019Z,100075.45
2023-03-26T23:47:44.501Z,100083.46
2023-03-26T23:50:15.094Z,100086.55
2023-03-26T23:52:45.738Z,100093.59
2023-03-26T23:55:16.340Z,100096.35
2023-03-26T23:57:46.957Z,100098.23
